Terminal Aerodrome Forecast
Issued by NWS Missoula, MT

Home | Current Version | Previous Version | Text Only | Print | Product List | Glossary On
Versions: 1 2 3 4 5 6 7 8 9 10 11 12 13 14 15 16 17 18 19 20 21 22
000
FTUS45 KMSO 191736
TAFMSO
TAF
KMSO 191736Z 1918/2018 VRB04KT P6SM SCT150
     FM200900 13007KT P6SM VCSH OVC050
     FM201200 VRB04KT 4SM -SN OVC030=

USA.gov is the U.S. government's official web portal to all federal, state and local government web resources and services.